createdAt,value
2023-11-08T00:01:11.425Z,97992.47
2023-11-08T00:03:39.420Z,97991.13
2023-11-08T00:06:06.772Z,97986.09
2023-11-08T00:08:33.936Z,97983.50
2023-11-08T00:11:01.124Z,97972.00
2023-11-08T00:13:28.233Z,97971.56
2023-11-08T00:15:55.281Z,97974.44
2023-11-08T00:18:23.865Z,97969.28
2023-11-08T00:20:50.992Z,97964.88
2023-11-08T00:23:18.042Z,97959.53
2023-11-08T00:25:45.107Z,97960.91
2023-11-08T00:28:12.150Z,97963.63
2023-11-08T00:30:40.362Z,97946.72
2023-11-08T00:33:07.477Z,97943.06
2023-11-08T00:35:34.725Z,97933.09
2023-11-08T00:38:02.123Z,97929.56
2023-11-08T00:40:29.327Z,97919.41
2023-11-08T00:42:56.592Z,97919.84
2023-11-08T00:45:25.377Z,97923.25
2023-11-08T00:47:53.745Z,97917.13
2023-11-08T00:50:21.232Z,97919.75
2023-11-08T00:52:51.934Z,97914.84
2023-11-08T00:55:18.926Z,97905.13
2023-11-08T00:57:45.955Z,97896.78
2023-11-08T01:00:13.740Z,97900.16
2023-11-08T01:02:43.048Z,97902.75
2023-11-08T01:05:12.681Z,97890.81
2023-11-08T01:07:39.840Z,97893.72
2023-11-08T01:10:07.511Z,97886.00
2023-11-08T01:12:35.272Z,97882.09
2023-11-08T01:15:02.687Z,97884.44
2023-11-08T01:17:30.823Z,97879.47
2023-11-08T01:19:58.076Z,97869.25
2023-11-08T01:22:25.116Z,97859.97
2023-11-08T01:24:52.365Z,97858.97
2023-11-08T01:27:19.490Z,97853.59
2023-11-08T01:29:46.485Z,97845.13
2023-11-08T01:32:13.564Z,97847.63
2023-11-08T01:34:40.658Z,97839.47
2023-11-08T01:37:07.728Z,97851.06
2023-11-08T01:39:34.842Z,97851.66
2023-11-08T01:42:02.013Z,97849.25
2023-11-08T01:44:29.097Z,97850.88
2023-11-08T01:46:56.892Z,97844.78
2023-11-08T01:49:25.172Z,97843.09
2023-11-08T01:51:53.329Z,97838.00
2023-11-08T01:54:21.427Z,97828.69
2023-11-08T01:56:49.052Z,97823.47
2023-11-08T01:59:19.574Z,97810.19
2023-11-08T02:01:47.238Z,97808.03
2023-11-08T02:04:15.305Z,97816.56
2023-11-08T02:06:44.171Z,97815.75
2023-11-08T02:09:12.817Z,97813.22
2023-11-08T02:11:39.990Z,97820.69
2023-11-08T02:14:07.424Z,97814.53
2023-11-08T02:16:34.462Z,97802.50
2023-11-08T02:19:01.656Z,97799.03
2023-11-08T02:21:29.480Z,97789.81
2023-11-08T02:23:56.740Z,97788.59
2023-11-08T02:26:23.821Z,97779.66
2023-11-08T02:28:50.880Z,97777.31
2023-11-08T02:31:18.520Z,97774.25
2023-11-08T02:33:45.739Z,97778.66
2023-11-08T02:36:15.540Z,97785.94
2023-11-08T02:38:42.650Z,97790.22
2023-11-08T02:41:10.058Z,97807.88
2023-11-08T02:43:37.709Z,97806.03
2023-11-08T02:46:05.687Z,97806.41
2023-11-08T02:48:33.711Z,97799.31
2023-11-08T02:51:01.134Z,97800.06
2023-11-08T02:53:28.573Z,97784.72
2023-11-08T02:55:55.653Z,97777.06
2023-11-08T02:58:24.452Z,97784.25
2023-11-08T03:00:55.963Z,97791.63
2023-11-08T03:03:23.184Z,97781.25
2023-11-08T03:05:50.272Z,97778.94
2023-11-08T03:08:17.304Z,97790.63
2023-11-08T03:10:44.351Z,97779.56
2023-11-08T03:13:11.430Z,97782.75
2023-11-08T03:15:38.572Z,97772.41
2023-11-08T03:18:06.113Z,97776.03
2023-11-08T03:20:33.604Z,97781.19
2023-11-08T03:23:00.727Z,97790.56
2023-11-08T03:25:27.785Z,97778.19
2023-11-08T03:27:54.885Z,97770.78
2023-11-08T03:30:22.026Z,97761.97
2023-11-08T03:32:49.944Z,97763.91
2023-11-08T03:35:17.091Z,97760.75
2023-11-08T03:37:44.740Z,97755.03
2023-11-08T03:40:13.850Z,97750.97
2023-11-08T03:42:42.072Z,97741.78
2023-11-08T03:45:10.084Z,97740.06
2023-11-08T03:47:38.814Z,97734.94
2023-11-08T03:50:06.785Z,97739.94
2023-11-08T03:52:34.311Z,97736.53
2023-11-08T03:55:01.524Z,97741.00
2023-11-08T03:57:29.584Z,97755.69
2023-11-08T03:59:56.897Z,97751.06
2023-11-08T04:02:24.845Z,97750.13
2023-11-08T04:04:52.445Z,97751.44
2023-11-08T04:07:19.744Z,97750.94
2023-11-08T04:09:47.324Z,97749.78
2023-11-08T04:12:14.931Z,97747.53
2023-11-08T04:14:42.429Z,97751.44
2023-11-08T04:17:13.400Z,97750.44
2023-11-08T04:19:40.444Z,97740.41
2023-11-08T04:22:07.962Z,97747.53
2023-11-08T04:24:35.520Z,97746.69
2023-11-08T04:27:04.437Z,97747.63
2023-11-08T04:29:35.308Z,97757.25
2023-11-08T04:32:02.393Z,97752.59
2023-11-08T04:34:30.046Z,97750.84
2023-11-08T04:36:57.169Z,97755.66
2023-11-08T04:39:24.846Z,97752.97
2023-11-08T04:41:53.086Z,97754.75
2023-11-08T04:44:20.968Z,97745.38
2023-11-08T04:46:48.403Z,97750.41
2023-11-08T04:49:16.242Z,97748.03
2023-11-08T04:51:44.000Z,97744.00
2023-11-08T04:54:11.292Z,97760.44
2023-11-08T04:56:38.376Z,97751.41
2023-11-08T04:59:10.305Z,97745.38
2023-11-08T05:01:38.536Z,97745.25
2023-11-08T05:04:05.888Z,97743.53
2023-11-08T05:06:33.022Z,97749.00
2023-11-08T05:09:00.306Z,97743.34
2023-11-08T05:11:31.206Z,97732.84
2023-11-08T05:13:58.296Z,97732.22
2023-11-08T05:16:25.407Z,97731.66
2023-11-08T05:18:52.924Z,97723.19
2023-11-08T05:21:24.821Z,97718.63
2023-11-08T05:23:51.955Z,97716.59
2023-11-08T05:26:20.160Z,97723.19
2023-11-08T05:28:47.453Z,97724.44
2023-11-08T05:31:15.396Z,97719.06
2023-11-08T05:33:42.901Z,97732.03
2023-11-08T05:36:10.384Z,97733.97
2023-11-08T05:38:41.188Z,97737.78
2023-11-08T05:41:08.340Z,97730.19
2023-11-08T05:43:35.404Z,97734.88
2023-11-08T05:46:02.463Z,97737.41
2023-11-08T05:48:29.493Z,97737.78
2023-11-08T05:50:56.584Z,97733.22
2023-11-08T05:53:24.220Z,97737.25
2023-11-08T05:55:51.441Z,97742.91
2023-11-08T05:58:18.480Z,97728.50
2023-11-08T06:00:45.650Z,97718.88
2023-11-08T06:03:12.818Z,97727.03
2023-11-08T06:05:41.447Z,97727.94
2023-11-08T06:08:08.599Z,97727.03
2023-11-08T06:10:35.843Z,97722.78
2023-11-08T06:13:06.507Z,97719.78
2023-11-08T06:15:33.638Z,97722.44
2023-11-08T06:18:01.854Z,97734.31
2023-11-08T06:20:29.174Z,97745.25
2023-11-08T06:22:56.197Z,97738.47
2023-11-08T06:25:23.972Z,97735.13
2023-11-08T06:27:51.068Z,97741.72
2023-11-08T06:30:18.387Z,97740.44
2023-11-08T06:32:45.666Z,97749.47
2023-11-08T06:35:13.067Z,97743.72
2023-11-08T06:37:41.192Z,97751.47
2023-11-08T06:40:10.618Z,97742.19
2023-11-08T06:42:40.918Z,97739.59
2023-11-08T06:45:09.139Z,97745.91
2023-11-08T06:47:36.470Z,97749.56
2023-11-08T06:50:03.986Z,97750.09
2023-11-08T06:52:31.039Z,97746.81
2023-11-08T06:54:58.183Z,97738.59
2023-11-08T06:57:25.371Z,97745.16
2023-11-08T06:59:52.449Z,97751.19
2023-11-08T07:02:21.720Z,97745.22
2023-11-08T07:04:48.917Z,97738.22
2023-11-08T07:07:16.097Z,97730.25
2023-11-08T07:09:43.346Z,97723.44
2023-11-08T07:12:10.366Z,97734.66
2023-11-08T07:14:38.004Z,97726.41
2023-11-08T07:17:06.695Z,97734.03
2023-11-08T07:19:34.181Z,97719.78
2023-11-08T07:22:01.333Z,97719.44
2023-11-08T07:24:28.418Z,97713.00
2023-11-08T07:26:55.802Z,97718.94
2023-11-08T07:29:23.659Z,97718.72
2023-11-08T07:31:53.679Z,97707.63
2023-11-08T07:34:23.235Z,97699.84
2023-11-08T07:36:52.565Z,97696.81
2023-11-08T07:39:27.041Z,97707.25
2023-11-08T07:41:55.343Z,97713.25
2023-11-08T07:44:22.730Z,97732.16
2023-11-08T07:46:49.867Z,97745.53
2023-11-08T07:49:17.551Z,97744.34
2023-11-08T07:51:45.233Z,97747.00
2023-11-08T07:54:12.613Z,97749.50
2023-11-08T07:56:39.863Z,97728.81
2023-11-08T07:59:07.273Z,97721.59
2023-11-08T08:01:34.304Z,97721.84
2023-11-08T08:04:01.649Z,97719.56
2023-11-08T08:06:29.009Z,97716.88
2023-11-08T08:08:58.497Z,97724.44
2023-11-08T08:11:25.922Z,97707.25
2023-11-08T08:13:53.714Z,97702.34
2023-11-08T08:16:23.738Z,97707.16
2023-11-08T08:18:50.961Z,97709.56
2023-11-08T08:21:18.450Z,97714.44
2023-11-08T08:23:51.585Z,97706.84
2023-11-08T08:26:25.580Z,97721.03
2023-11-08T08:28:52.672Z,97721.91
2023-11-08T08:31:20.340Z,97723.28
2023-11-08T08:33:47.590Z,97718.97
2023-11-08T08:36:14.654Z,97730.47
2023-11-08T08:38:41.929Z,97730.25
2023-11-08T08:41:08.960Z,97725.25
2023-11-08T08:43:36.422Z,97731.56
2023-11-08T08:46:03.540Z,97738.03
2023-11-08T08:48:30.639Z,97735.63
2023-11-08T08:50:58.983Z,97728.78
2023-11-08T08:53:26.277Z,97717.50
2023-11-08T08:55:53.308Z,97712.00
2023-11-08T08:58:20.302Z,97712.81
2023-11-08T09:00:47.353Z,97719.88
2023-11-08T09:03:17.379Z,97711.78
2023-11-08T09:05:44.673Z,97705.84
2023-11-08T09:08:11.898Z,97706.44
2023-11-08T09:10:39.057Z,97702.75
2023-11-08T09:13:06.721Z,97706.38
2023-11-08T09:15:33.986Z,97697.59
2023-11-08T09:21:27.293Z,97694.13
2023-11-08T09:23:54.373Z,97685.53
2023-11-08T09:26:21.410Z,97679.81
2023-11-08T09:28:48.426Z,97676.22
2023-11-08T09:31:17.889Z,97679.66
2023-11-08T09:33:44.988Z,97674.38
2023-11-08T09:36:13.379Z,97680.25
2023-11-08T09:38:40.427Z,97673.03
2023-11-08T09:41:09.312Z,97674.91
2023-11-08T09:43:38.901Z,97661.00
2023-11-08T10:19:32.130Z,97645.78
2023-11-08T10:21:02.515Z,97638.16
2023-11-08T10:23:32.206Z,97635.03
2023-11-08T10:26:19.677Z,97632.59
2023-11-08T10:28:56.287Z,97635.38
2023-11-08T10:31:31.168Z,97634.28
2023-11-08T10:33:58.811Z,97631.78
2023-11-08T10:36:27.548Z,97620.38
2023-11-08T10:38:54.836Z,97616.19
2023-11-08T10:41:22.216Z,97615.53
2023-11-08T10:43:49.916Z,97619.69
2023-11-08T10:46:17.308Z,97627.25
2023-11-08T10:48:46.129Z,97622.38
2023-11-08T10:51:13.843Z,97616.69
2023-11-08T10:53:41.114Z,97605.50
2023-11-08T10:56:10.143Z,97613.03
2023-11-08T10:58:45.014Z,97608.69
2023-11-08T11:01:16.322Z,97614.38
2023-11-08T11:03:44.296Z,97620.91
2023-11-08T11:06:12.670Z,97614.41
2023-11-08T11:08:44.659Z,97606.44
2023-11-08T11:11:12.421Z,97597.63
2023-11-08T11:13:50.041Z,97598.63
2023-11-08T11:16:33.696Z,97595.47
2023-11-08T11:19:17.145Z,97589.53
2023-11-08T11:21:46.667Z,97588.50
2023-11-08T11:24:39.250Z,97579.50
2023-11-08T11:27:07.438Z,97584.66
2023-11-08T11:29:35.618Z,97591.97
2023-11-08T11:32:08.337Z,97586.06
2023-11-08T11:34:35.453Z,97584.13
2023-11-08T11:37:08.273Z,97589.94
2023-11-08T11:39:36.253Z,97603.38
2023-11-08T11:42:08.446Z,97608.53
2023-11-08T11:44:40.996Z,97615.50
2023-11-08T11:47:13.176Z,97616.94
2023-11-08T11:49:49.265Z,97609.72
2023-11-08T11:52:18.684Z,97618.63
2023-11-08T11:54:53.279Z,97616.56
2023-11-08T11:57:22.264Z,97608.03
2023-11-08T11:59:51.089Z,97611.00
2023-11-08T12:02:19.392Z,97603.66
2023-11-08T12:04:52.314Z,97601.06
2023-11-08T12:07:20.390Z,97594.34
2023-11-08T12:09:50.080Z,97594.94
2023-11-08T12:12:36.758Z,97589.50
2023-11-08T12:15:13.382Z,97588.09
2023-11-08T12:17:40.689Z,97577.66
2023-11-08T12:20:08.659Z,97576.31
2023-11-08T12:22:38.956Z,97601.78
2023-11-08T12:25:07.096Z,97603.53
2023-11-08T12:27:34.235Z,97601.97
2023-11-08T12:30:01.846Z,97611.84
2023-11-08T12:32:28.939Z,97628.03
2023-11-08T12:34:56.110Z,97624.75
2023-11-08T12:37:23.675Z,97624.34
2023-11-08T12:39:51.594Z,97631.31
2023-11-08T12:42:18.674Z,97620.06
2023-11-08T12:44:52.089Z,97615.13
2023-11-08T12:47:19.342Z,97618.00
2023-11-08T12:49:46.627Z,97604.50
2023-11-08T12:52:14.111Z,97574.22
2023-11-08T12:54:41.597Z,97529.00
2023-11-08T12:57:08.794Z,97544.97
2023-11-08T12:59:45.131Z,97578.97
2023-11-08T13:02:21.449Z,97608.63
2023-11-08T13:04:49.819Z,97621.31
2023-11-08T13:07:17.200Z,97610.25
2023-11-08T13:09:44.387Z,97615.56
2023-11-08T13:12:14.865Z,97604.25
2023-11-08T13:14:42.325Z,97614.28
2023-11-08T13:17:12.903Z,97623.69
2023-11-08T13:19:40.559Z,97614.88
2023-11-08T13:22:07.710Z,97627.31
2023-11-08T13:24:36.541Z,97633.25
2023-11-08T13:27:06.588Z,97633.84
2023-11-08T13:29:35.377Z,97644.47
2023-11-08T13:32:04.764Z,97633.84
2023-11-08T13:34:32.183Z,97641.59
2023-11-08T13:37:00.434Z,97639.31
2023-11-08T13:39:27.477Z,97643.81
2023-11-08T13:41:54.581Z,97645.66
2023-11-08T13:44:21.678Z,97653.06
2023-11-08T13:46:48.740Z,97649.38
2023-11-08T13:49:15.868Z,97639.53
2023-11-08T13:51:43.073Z,97642.41
2023-11-08T13:54:10.063Z,97643.44
2023-11-08T13:56:38.696Z,97639.59
2023-11-08T13:59:06.275Z,97639.16
2023-11-08T14:01:33.366Z,97641.19
2023-11-08T14:04:00.994Z,97646.44
2023-11-08T14:06:28.041Z,97647.66
2023-11-08T14:08:55.109Z,97655.41
2023-11-08T14:11:22.311Z,97654.94
2023-11-08T14:13:49.917Z,97656.91
2023-11-08T14:16:17.037Z,97668.75
2023-11-08T14:18:45.573Z,97663.03
2023-11-08T14:21:12.847Z,97638.06
2023-11-08T14:23:39.914Z,97623.59
2023-11-08T14:26:08.288Z,97615.94
2023-11-08T14:28:35.375Z,97617.28
2023-11-08T14:31:02.835Z,97623.72
2023-11-08T14:33:30.153Z,97650.19
2023-11-08T14:35:59.469Z,97658.34
2023-11-08T14:38:26.766Z,97657.22
2023-11-08T14:40:53.835Z,97644.69
2023-11-08T14:43:23.416Z,97638.22
2023-11-08T14:45:51.924Z,97643.28
2023-11-08T14:48:19.232Z,97642.63
2023-11-08T14:50:46.885Z,97655.44
2023-11-08T14:53:14.019Z,97672.25
2023-11-08T14:55:42.566Z,97675.97
2023-11-08T14:58:10.038Z,97684.59
2023-11-08T15:00:37.190Z,97696.56
2023-11-08T15:03:05.879Z,97713.41
2023-11-08T15:05:35.068Z,97704.84
2023-11-08T15:09:48.507Z,97705.91
2023-11-08T15:10:54.782Z,97705.81
2023-11-08T15:13:22.275Z,97709.03
2023-11-08T15:15:49.561Z,97706.84
2023-11-08T15:18:17.979Z,97715.84
2023-11-08T15:20:45.132Z,97715.66
2023-11-08T15:23:12.211Z,97720.28
2023-11-08T15:25:41.056Z,97719.97
2023-11-08T15:28:10.490Z,97731.03
2023-11-08T15:30:37.592Z,97738.84
2023-11-08T15:33:05.977Z,97734.69
2023-11-08T15:35:33.445Z,97733.97
2023-11-08T15:38:00.498Z,97741.53
2023-11-08T15:40:27.593Z,97750.59
2023-11-08T15:42:54.885Z,97746.47
2023-11-08T15:45:21.993Z,97740.47
2023-11-08T15:47:49.080Z,97742.06
2023-11-08T15:50:16.112Z,97730.72
2023-11-08T15:52:43.324Z,97740.16
2023-11-08T15:55:10.600Z,97735.69
2023-11-08T15:57:37.717Z,97723.63
2023-11-08T16:00:08.509Z,97713.41
2023-11-08T16:02:35.612Z,97725.84
2023-11-08T16:05:04.877Z,97736.25
2023-11-08T16:07:31.982Z,97731.44
2023-11-08T16:09:59.524Z,97712.78
2023-11-08T16:12:26.609Z,97686.31
2023-11-08T16:14:53.782Z,97669.25
2023-11-08T16:17:21.076Z,97655.91
2023-11-08T16:19:49.129Z,97701.91
2023-11-08T16:22:16.323Z,97714.09
2023-11-08T16:24:43.853Z,97731.88
2023-11-08T16:27:11.306Z,97734.50
2023-11-08T16:29:51.548Z,97743.06
2023-11-08T16:32:35.587Z,97759.88
2023-11-08T16:35:08.722Z,97768.06
2023-11-08T16:37:39.958Z,97770.88
2023-11-08T16:40:11.863Z,97783.53
2023-11-08T16:42:39.701Z,97779.41
2023-11-08T16:45:08.473Z,97779.53
2023-11-08T16:47:35.922Z,97785.19
2023-11-08T16:50:03.031Z,97789.72
2023-11-08T16:52:30.096Z,97789.84
2023-11-08T16:54:57.851Z,97801.03
2023-11-08T16:57:25.009Z,97792.22
2023-11-08T16:59:52.038Z,97789.03
2023-11-08T17:02:19.198Z,97788.63
2023-11-08T17:04:47.807Z,97772.50
2023-11-08T17:07:14.971Z,97743.53
2023-11-08T17:09:42.075Z,97725.38
2023-11-08T17:12:09.289Z,97742.13
2023-11-08T17:14:36.955Z,97731.91
2023-11-08T17:17:04.365Z,97747.25
2023-11-08T17:19:31.490Z,97736.22
2023-11-08T17:21:58.948Z,97720.94
2023-11-08T17:24:27.695Z,97722.94
2023-11-08T17:26:56.519Z,97712.72
2023-11-08T17:29:23.523Z,97692.88
2023-11-08T17:31:52.452Z,97667.84
2023-11-08T17:34:19.890Z,97664.22
2023-11-08T17:36:48.932Z,97658.75
2023-11-08T17:39:15.998Z,97656.13
2023-11-08T17:41:43.013Z,97644.72
2023-11-08T17:44:10.045Z,97647.84
2023-11-08T17:46:37.045Z,97658.56
2023-11-08T17:49:05.177Z,97654.59
2023-11-08T17:51:32.369Z,97648.50
2023-11-08T17:54:00.866Z,97651.59
2023-11-08T17:56:28.069Z,97651.59
2023-11-08T17:58:55.072Z,97662.13
2023-11-08T18:01:23.481Z,97670.72
2023-11-08T18:03:50.812Z,97682.91
2023-11-08T18:06:18.486Z,97684.88
2023-11-08T18:08:46.485Z,97684.72
2023-11-08T18:11:15.396Z,97689.16
2023-11-08T18:13:47.199Z,97710.03
2023-11-08T18:16:14.358Z,97718.47
2023-11-08T18:18:42.450Z,97728.69
2023-11-08T18:21:09.617Z,97731.56
2023-11-08T18:23:37.028Z,97738.00
2023-11-08T18:26:05.023Z,97743.78
2023-11-08T18:28:32.069Z,97752.66
2023-11-08T18:30:59.289Z,97745.75
2023-11-08T18:33:27.593Z,97754.31
2023-11-08T18:35:54.966Z,97747.41
2023-11-08T18:38:23.076Z,97744.09
2023-11-08T18:40:51.779Z,97733.97
2023-11-08T18:43:18.830Z,97744.66
2023-11-08T18:45:45.946Z,97747.13
2023-11-08T18:48:13.299Z,97755.03
2023-11-08T18:50:41.997Z,97767.56
2023-11-08T18:53:09.940Z,97767.09
2023-11-08T18:55:37.061Z,97761.63
2023-11-08T18:58:04.079Z,97781.00
2023-11-08T19:00:31.311Z,97779.31
2023-11-08T19:02:58.407Z,97793.09
2023-11-08T19:05:25.470Z,97794.84
2023-11-08T19:07:52.603Z,97805.38
2023-11-08T19:10:19.733Z,97801.03
2023-11-08T19:12:47.288Z,97798.09
2023-11-08T19:15:15.311Z,97778.97
2023-11-08T19:17:43.058Z,97783.22
2023-11-08T19:20:11.454Z,97774.66
2023-11-08T19:22:38.921Z,97765.09
2023-11-08T19:25:06.954Z,97785.78
2023-11-08T19:27:41.033Z,97789.84
2023-11-08T19:30:11.335Z,97771.41
2023-11-08T19:32:38.485Z,97768.88
2023-11-08T19:35:06.946Z,97756.66
2023-11-08T19:37:34.027Z,97740.00
2023-11-08T19:40:01.119Z,97727.31
2023-11-08T19:42:28.683Z,97744.06
2023-11-08T19:44:56.514Z,97738.59
2023-11-08T19:47:23.740Z,97729.50
2023-11-08T19:49:53.871Z,97743.25
2023-11-08T19:52:22.798Z,97742.72
2023-11-08T19:54:50.495Z,97745.88
2023-11-08T19:57:17.659Z,97755.41
2023-11-08T19:59:45.310Z,97758.25
2023-11-08T20:02:13.492Z,97777.81
2023-11-08T20:04:40.636Z,97776.84
2023-11-08T20:07:08.145Z,97781.59
2023-11-08T20:09:35.784Z,97790.41
2023-11-08T20:12:03.329Z,97792.88
2023-11-08T20:14:30.578Z,97787.28
2023-11-08T20:16:58.801Z,97788.88
2023-11-08T20:19:26.208Z,97776.59
2023-11-08T20:21:53.389Z,97767.66
2023-11-08T20:24:21.473Z,97772.47
2023-11-08T20:26:49.440Z,97768.66
2023-11-08T20:29:17.079Z,97766.19
2023-11-08T20:31:46.050Z,97756.22
2023-11-08T20:34:13.466Z,97754.34
2023-11-08T20:36:40.618Z,97753.31
2023-11-08T20:39:08.179Z,97754.31
2023-11-08T20:41:35.240Z,97748.56
2023-11-08T20:44:02.459Z,97749.69
2023-11-08T20:46:29.505Z,97749.69
2023-11-08T20:48:56.679Z,97748.06
2023-11-08T20:51:25.225Z,97751.34
2023-11-08T20:53:52.273Z,97753.53
2023-11-08T20:56:19.481Z,97758.50
2023-11-08T20:58:46.505Z,97754.50
2023-11-08T21:01:13.612Z,97763.75
2023-11-08T21:03:40.672Z,97769.88
2023-11-08T21:06:07.886Z,97756.91
2023-11-08T21:08:35.046Z,97736.28
2023-11-08T21:11:02.483Z,97748.72
2023-11-08T21:13:29.539Z,97759.56
2023-11-08T21:15:56.570Z,97767.75
2023-11-08T21:18:24.324Z,97763.13
2023-11-08T21:20:51.642Z,97754.59
2023-11-08T21:23:19.384Z,97748.53
2023-11-08T21:25:46.516Z,97733.03
2023-11-08T21:28:13.835Z,97736.38
2023-11-08T21:30:41.618Z,97732.75
2023-11-08T21:33:09.135Z,97730.41
2023-11-08T21:35:36.378Z,97745.06
2023-11-08T21:38:03.638Z,97765.25
2023-11-08T21:40:30.743Z,97778.09
2023-11-08T21:42:58.866Z,97784.69
2023-11-08T21:45:25.962Z,97779.44
2023-11-08T21:47:53.015Z,97758.59
2023-11-08T21:50:20.041Z,97763.00
2023-11-08T21:52:47.418Z,97754.75
2023-11-08T21:55:15.291Z,97753.69
2023-11-08T21:57:43.422Z,97758.94
2023-11-08T22:00:11.440Z,97765.72
2023-11-08T22:02:39.314Z,97772.38
2023-11-08T22:05:07.581Z,97783.84
2023-11-08T22:07:34.975Z,97769.38
2023-11-08T22:10:02.135Z,97774.78
2023-11-08T22:12:29.207Z,97768.00
2023-11-08T22:14:56.619Z,97768.16
2023-11-08T22:17:24.200Z,97756.16
2023-11-08T22:19:51.326Z,97766.81
2023-11-08T22:22:18.554Z,97775.50
2023-11-08T22:24:45.596Z,97782.72
2023-11-08T22:27:12.663Z,97793.53
2023-11-08T22:29:39.728Z,97781.34
2023-11-08T22:32:07.464Z,97784.84
2023-11-08T22:34:36.481Z,97793.53
2023-11-08T22:37:03.610Z,97797.00
2023-11-08T22:39:32.458Z,97803.22
2023-11-08T22:41:59.502Z,97806.50
2023-11-08T22:44:26.523Z,97806.78
2023-11-08T22:46:53.570Z,97800.44
2023-11-08T22:49:20.972Z,97805.97
2023-11-08T22:51:48.182Z,97799.06
2023-11-08T22:54:15.656Z,97792.19
2023-11-08T22:56:44.088Z,97781.72
2023-11-08T22:59:11.125Z,97781.88
2023-11-08T23:01:39.330Z,97778.06
2023-11-08T23:04:06.890Z,97778.50
2023-11-08T23:06:34.248Z,97772.19
2023-11-08T23:09:01.754Z,97766.38
2023-11-08T23:11:31.460Z,97772.81
2023-11-08T23:13:58.874Z,97766.19
2023-11-08T23:16:27.401Z,97758.78
2023-11-08T23:18:55.482Z,97759.06
2023-11-08T23:21:23.265Z,97754.97
2023-11-08T23:23:52.578Z,97755.50
2023-11-08T23:26:21.592Z,97752.94
2023-11-08T23:28:48.631Z,97765.81
2023-11-08T23:31:15.792Z,97773.81
2023-11-08T23:33:42.924Z,97784.63
2023-11-08T23:36:15.166Z,97763.66
2023-11-08T23:38:43.494Z,97761.47
2023-11-08T23:41:11.095Z,97761.75
2023-11-08T23:43:38.206Z,97749.06
2023-11-08T23:46:05.336Z,97739.00
2023-11-08T23:48:32.569Z,97744.41
2023-11-08T23:50:59.692Z,97743.84
2023-11-08T23:53:26.959Z,97773.66
2023-11-08T23:55:54.659Z,97780.97
2023-11-08T23:58:22.609Z,97794.06
